地図

経路データ

SID SEASON NUMBER BASIN SUBBASIN NAME ISO_TIME NATURE LAT LON WMO_WIND WMO_PRES WMO_AGENCY TRACK_TYPE DIST2LAND LANDFALL IFLAG USA_AGENCY USA_ATCF_ID USA_LAT USA_LON USA_RECORD USA_STATUS USA_WIND USA_PRES USA_SSHS USA_R34_NE USA_R34_SE USA_R34_SW USA_R34_NW USA_R50_NE USA_R50_SE USA_R50_SW USA_R50_NW USA_R64_NE USA_R64_SE USA_R64_SW USA_R64_NW USA_POCI USA_ROCI USA_RMW USA_EYE TOKYO_LAT TOKYO_LON TOKYO_GRADE TOKYO_WIND TOKYO_PRES TOKYO_R50_DIR TOKYO_R50_LONG TOKYO_R50_SHORT TOKYO_R30_DIR TOKYO_R30_LONG TOKYO_R30_SHORT TOKYO_LAND CMA_LAT CMA_LON CMA_CAT CMA_WIND CMA_PRES HKO_LAT HKO_LON HKO_CAT HKO_WIND HKO_PRES NEWDELHI_LAT NEWDELHI_LON NEWDELHI_GRADE NEWDELHI_WIND NEWDELHI_PRES NEWDELHI_CI NEWDELHI_DP NEWDELHI_POCI REUNION_LAT REUNION_LON REUNION_TYPE REUNION_WIND REUNION_PRES REUNION_TNUM REUNION_CI REUNION_RMW REUNION_R34_NE REUNION_R34_SE REUNION_R34_SW REUNION_R34_NW REUNION_R50_NE REUNION_R50_SE REUNION_R50_SW REUNION_R50_NW REUNION_R64_NE REUNION_R64_SE REUNION_R64_SW REUNION_R64_NW BOM_LAT BOM_LON BOM_TYPE BOM_WIND BOM_PRES BOM_TNUM BOM_CI BOM_RMW BOM_R34_NE BOM_R34_SE BOM_R34_SW BOM_R34_NW BOM_R50_NE BOM_R50_SE BOM_R50_SW BOM_R50_NW BOM_R64_NE BOM_R64_SE BOM_R64_SW BOM_R64_NW BOM_ROCI BOM_POCI BOM_EYE BOM_POS_METHOD BOM_PRES_METHOD NADI_LAT NADI_LON NADI_CAT NADI_WIND NADI_PRES WELLINGTON_LAT WELLINGTON_LON WELLINGTON_WIND WELLINGTON_PRES DS824_LAT DS824_LON DS824_STAGE DS824_WIND DS824_PRES TD9636_LAT TD9636_LON TD9636_STAGE TD9636_WIND TD9636_PRES TD9635_LAT TD9635_LON TD9635_WIND TD9635_PRES TD9635_ROCI NEUMANN_LAT NEUMANN_LON NEUMANN_CLASS NEUMANN_WIND NEUMANN_PRES MLC_LAT MLC_LON MLC_CLASS MLC_WIND MLC_PRES USA_GUST BOM_GUST BOM_GUST_PER REUNION_GUST REUNION_GUST_PER USA_SEAHGT USA_SEARAD_NE USA_SEARAD_SE USA_SEARAD_SW USA_SEARAD_NW STORM_SPEED STORM_DIR
2020212N13343 2020 44 NA NA NOT_NAMED 2020-07-29 18:00:00 NR 12.6000 -17.0000 PROVISIONAL 21 21 O_____________ nhc_working_bt AL102020 12.6000 -17.0000 DB 25 1009 -3 1010 120 25 23 270
2020212N13343 2020 44 NA NA NOT_NAMED 2020-07-29 21:00:00 NR 12.5915 -18.1926 PROVISIONAL 152 152 P_____________ AL102020 12.5915 -18.1926 DB 25 1009 -3 1010 120 25 21 270
2020212N13343 2020 44 NA NA NOT_NAMED 2020-07-30 00:00:00 NR 12.6000 -19.2000 PROVISIONAL 260 260 O_____________ nhc_working_bt AL102020 12.6000 -19.2000 DB 25 1009 -3 1010 120 25 17 272
2020212N13343 2020 44 NA NA NOT_NAMED 2020-07-30 03:00:00 NR 12.6419 -19.8849 PROVISIONAL 336 336 P_____________ AL102020 12.6419 -19.8849 DB 25 1009 -3 1010 120 25 11 275
2020212N13343 2020 44 NA NA NOT_NAMED 2020-07-30 06:00:00 NR 12.7000 -20.3000 PROVISIONAL 376 376 O_____________ nhc_working_bt AL102020 12.7000 -20.3000 DB 25 1009 -3 1010 120 25 7 279
2020212N13343 2020 44 NA NA NOT_NAMED 2020-07-30 09:00:00 NR 12.7498 -20.6125 PROVISIONAL 402 396 P_____________ AL102020 12.7498 -20.6125 DB 27 1008 -3 1010 120 25 4 284
2020212N13343 2020 44 NA NA NOT_NAMED 2020-07-30 12:00:00 DS 12.8000 -20.7000 PROVISIONAL 405 396 O_____________ nhc_working_bt AL102020 12.8000 -20.7000 LO 30 1008 -3 1010 120 25 1 28
2020212N13343 2020 44 NA NA NOT_NAMED 2020-07-30 15:00:00 DS 12.8425 -20.5525 PROVISIONAL 396 363 P_____________ AL102020 12.8425 -20.5525 LO 30 1008 -3 1010 120 25 4 76
2020212N13343 2020 44 NA NA NOT_NAMED 2020-07-30 18:00:00 DS 12.9000 -20.3000 PROVISIONAL 363 345 O_____________ nhc_working_bt AL102020 12.9000 -20.3000 LO 30 1008 -3 1010 120 25 4 75
2020212N13343 2020 44 NA NA NOT_NAMED 2020-07-30 21:00:00 DS 12.9550 -20.1275 PROVISIONAL 339 324 P_____________ AL102020 12.9550 -20.1275 LO 30 1008 -3 1011 120 25 4 56
2020212N13343 2020 44 NA NA NOT_NAMED 2020-07-31 00:00:00 DS 13.1000 -20.0000 PROVISIONAL 324 306 O_____________ nhc_working_bt AL102020 13.1000 -20.0000 LO 30 1008 -3 1012 120 25 5 19
2020212N13343 2020 44 NA NA NOT_NAMED 2020-07-31 03:00:00 DS 13.4350 -19.9574 PROVISIONAL 306 277 P_____________ AL102020 13.4350 -19.9574 LO 30 1008 -3 1012 120 25 7 8
2020212N13343 2020 44 NA NA NOT_NAMED 2020-07-31 06:00:00 DS 13.8000 -19.9000 PROVISIONAL 277 249 O_____________ nhc_working_bt AL102020 13.8000 -19.9000 LO 30 1008 -3 1012 120 25 6 27
2020212N13343 2020 44 NA NA NOT_NAMED 2020-07-31 09:00:00 DS 13.9626 -19.6776 PROVISIONAL 249 222 P_____________ AL102020 13.9626 -19.6776 LO 30 1008 -3 1012 120 25 6 44
2020212N13343 2020 44 NA NA NOT_NAMED 2020-07-31 12:00:00 DS 14.2000 -19.5000 PROVISIONAL 222 215 O_____________ nhc_working_bt AL102020 14.2000 -19.5000 LO 30 1008 -3 1012 120 25 8 12
2020212N13343 2020 44 NA NA NOT_NAMED 2020-07-31 15:00:00 DS 14.7324 -19.5028 PROVISIONAL 215 215 P_____________ AL102020 14.7324 -19.5028 LO 30 1008 -3 1011 120 25 12 351
2020212N13343 2020 44 NA NA NOT_NAMED 2020-07-31 18:00:00 TS 15.4000 -19.7000 PROVISIONAL 248 248 O_____________ nhc_working_bt AL102020 15.4000 -19.7000 TD 30 1008 -1 1011 120 25 40 15 336
2020212N13343 2020 44 NA NA NOT_NAMED 2020-07-31 21:00:00 TS 16.1002 -20.1367 PROVISIONAL 319 319 P_____________ AL102020 16.0877 -20.1119 TD 30 1008 -1 1011 120 25 16 326
2020212N13343 2020 44 NA NA NOT_NAMED 2020-08-01 00:00:00 TS 16.7000 -20.6000 PROVISIONAL 400 400 O_____________ nhc_working_bt AL102020 16.7000 -20.6000 TD 30 1008 -1 1011 120 25 40 13 320
2020212N13343 2020 44 NA NA NOT_NAMED 2020-08-01 03:00:00 TS 17.0874 -20.9879 PROVISIONAL 460 460 P_____________ AL102020 17.0874 -20.9879 TD 30 1008 -1 1011 120 25 10 316
2020212N13343 2020 44 NA NA NOT_NAMED 2020-08-01 06:00:00 TS 17.4000 -21.3000 PROVISIONAL 506 506 O_____________ nhc_working_bt AL102020 17.4000 -21.3000 TD 30 1008 -1 1012 120 25 40 8 327
2020212N13343 2020 44 NA NA NOT_NAMED 2020-08-01 09:00:00 TS 17.7921 -21.4631 PROVISIONAL 550 549 P_____________ AL102020 17.7921 -21.4631 TD 27 1008 -1 1013 135 25 9 334
2020212N13343 2020 44 NA NA NOT_NAMED 2020-08-01 12:00:00 TS 18.2000 -21.7000 PROVISIONAL 563 563 O_____________ nhc_working_bt AL102020 18.2000 -21.7000 TD 25 1009 -1 1014 150 25 35 11 319
2020212N13343 2020 44 NA NA NOT_NAMED 2020-08-01 15:00:00 TS 18.6227 -22.2322 PROVISIONAL 587 587 P_____________ AL102020 18.6227 -22.2322 TD 25 1009 -1 1014 150 25 14 305
2020212N13343 2020 44 NA NA NOT_NAMED 2020-08-01 18:00:00 TS 19.0000 -22.9000 PROVISIONAL 638 638 O_____________ nhc_working_bt AL102020 19.0000 -22.9000 TD 25 1009 -1 1014 150 25 35 14 298
2020212N13343 2020 44 NA NA NOT_NAMED 2020-08-01 21:00:00 TS 19.2802 -23.5600 PROVISIONAL 699 699 P_____________ AL102020 19.2802 -23.5600 TD 22 1009 -1 1014 150 25 13 292
2020212N13343 2020 44 NA NA NOT_NAMED 2020-08-02 00:00:00 DS 19.5000 -24.2000 PROVISIONAL 755 O_____________ nhc_working_bt AL102020 19.5000 -24.2000 LO 20 1009 -3 1014 150 25 30 13 290

IBTrACS Databaseについて

本データベースは、米国NOAAが公開する1842年以降の世界の熱帯低気圧のベストトラックデータアーカイブInternational Best Track Archive for Climate Stewardship (IBTrACS)を、ウェブで閲覧しやすい形式に変換したものです。

最終更新日:2021-11-26